Time;durP1;ratioP1;P1;durP2;ratioP2;P2;SDS_P1;SDS_P2;PMS_P1;PMS_P2;Temp;Humidity;BMP_temperature;BMP_pressure;BME280_temperature;BME280_humidity;BME280_pressure;Samples;Min_cycle;Max_cycle;Signal;HPM_P1;HPM_P2
2022/12/29 00:01:24;;;;;;;4.15;2.70;;;10.30;84.40;;;;;;2299687;58;21628;-48
2022/12/29 00:03:52;;;;;;;4.85;3.37;;;10.40;84.30;;;;;;2299985;58;21133;-52
2022/12/29 00:06:19;;;;;;;3.90;3.40;;;10.40;84.40;;;;;;2299673;58;21561;-49
2022/12/29 00:08:46;;;;;;;4.68;3.50;;;10.40;84.60;;;;;;2299501;58;21145;-49
2022/12/29 00:11:15;;;;;;;4.20;2.97;;;10.30;84.60;;;;;;2299692;58;21214;-50
2022/12/29 00:16:29;;;;;;;5.18;3.28;;;10.40;84.80;;;;;;2299030;58;21022;-51
2022/12/29 00:18:57;;;;;;;4.20;3.55;;;10.40;84.60;;;;;;2301789;58;21637;-49
2022/12/29 00:35:32;;;;;;;4.45;3.67;;;10.50;85.20;;;;;;2299507;58;21035;-50
2022/12/29 00:46:18;;;;;;;6.05;3.85;;;10.50;85.00;;;;;;2300571;58;21043;-52
2022/12/29 00:51:31;;;;;;;4.18;3.78;;;10.50;85.20;;;;;;2298150;58;21086;-49
2022/12/29 00:53:58;;;;;;;4.70;4.00;;;10.50;85.10;;;;;;2299953;58;21067;-51
2022/12/29 00:56:25;;;;;;;5.72;3.97;;;10.60;85.20;;;;;;2300392;58;21142;-49
2022/12/29 00:58:52;;;;;;;4.15;3.72;;;10.60;85.20;;;;;;2299677;58;21134;-51
2022/12/29 01:01:19;;;;;;;7.62;4.45;;;10.60;85.20;;;;;;2300214;58;21078;-53
2022/12/29 01:03:46;;;;;;;4.75;3.83;;;10.60;85.20;;;;;;2300031;58;21562;-52
2022/12/29 01:06:14;;;;;;;5.28;3.70;;;10.70;85.20;;;;;;2298817;58;22227;-47
2022/12/29 01:08:41;;;;;;;4.30;3.90;;;10.70;85.00;;;;;;2299825;58;21657;-48
2022/12/29 01:11:11;;;;;;;5.07;4.12;;;10.70;84.90;;;;;;2299640;58;21075;-46
2022/12/29 01:13:40;;;;;;;5.45;3.95;;;10.70;85.00;;;;;;2301785;58;21546;-48
2022/12/29 01:16:08;;;;;;;5.37;3.97;;;10.80;85.00;;;;;;2539161;54;21034;-49
2022/12/29 01:18:35;;;;;;;4.25;3.53;;;10.80;85.00;;;;;;2301168;58;21030;-51
2022/12/29 01:21:05;;;;;;;4.62;3.83;;;10.80;85.50;;;;;;2300423;58;21158;-47
2022/12/29 01:23:33;;;;;;;5.22;4.00;;;10.80;84.80;;;;;;2299616;58;21058;-52
2022/12/29 01:26:10;;;;;;;4.57;3.78;;;10.90;84.80;;;;;;2299677;58;21561;-47
2022/12/29 01:28:38;;;;;;;4.07;3.65;;;10.90;84.80;;;;;;2299405;58;21557;-50
2022/12/29 01:31:05;;;;;;;5.57;3.62;;;10.90;84.90;;;;;;2300060;58;21145;-50
2022/12/29 01:33:33;;;;;;;6.00;4.07;;;10.90;84.80;;;;;;2300069;58;21570;-48
2022/12/29 01:36:01;;;;;;;4.78;3.67;;;10.90;84.60;;;;;;2300058;58;21070;-49
2022/12/29 01:38:29;;;;;;;4.62;3.62;;;10.90;84.60;;;;;;2299744;58;21590;-51
2022/12/29 01:43:41;;;;;;;6.12;3.67;;;11.00;84.60;;;;;;2339964;56;28426;-48
2022/12/29 01:46:19;;;;;;;4.75;3.40;;;10.90;86.70;;;;;;2373439;56;21542;-50
2022/12/29 01:48:49;;;;;;;3.90;3.42;;;10.90;85.90;;;;;;2373617;56;21129;-50
2022/12/29 01:51:17;;;;;;;4.43;3.55;;;11.00;85.10;;;;;;2373096;56;21117;-52
2022/12/29 01:53:45;;;;;;;4.07;3.60;;;11.10;84.60;;;;;;2373095;56;21538;-49
2022/12/29 01:56:16;;;;;;;6.07;3.45;;;11.10;84.50;;;;;;2627366;52;21582;-49
2022/12/29 01:58:47;;;;;;;5.72;3.92;;;11.10;84.30;;;;;;2373294;56;22136;-51
2022/12/29 02:01:16;;;;;;;4.40;4.00;;;11.20;84.20;;;;;;2372858;56;21530;-50
2022/12/29 02:03:44;;;;;;;5.60;3.80;;;11.20;84.20;;;;;;2375191;56;21106;-49
2022/12/29 02:06:17;;;;;;;4.45;3.80;;;11.20;84.20;;;;;;2375161;56;21118;-48
2022/12/29 02:08:46;;;;;;;;;;;11.20;84.20;;;;;;2378464;56;21050;-50
2022/12/29 02:11:13;;;;;;;5.00;3.90;;;11.30;84.10;;;;;;2374874;56;20105;-50
2022/12/29 02:13:40;;;;;;;5.10;4.05;;;11.30;83.60;;;;;;2374903;56;21522;-48
2022/12/29 02:16:21;;;;;;;4.20;3.70;;;11.30;84.40;;;;;;2373559;56;21140;-48
2022/12/29 02:18:56;;;;;;;5.20;4.45;;;11.30;83.80;;;;;;2372921;56;21530;-49
2022/12/29 02:21:47;;;;;;;4.93;3.90;;;11.30;83.90;;;;;;2372801;56;21538;-52
2022/12/29 02:24:48;;;;;;;6.10;4.30;;;11.30;84.10;;;;;;2373618;56;21507;-52
2022/12/29 02:27:44;;;;;;;6.90;4.35;;;11.30;83.90;;;;;;2360452;56;21035;-52
2022/12/29 02:30:44;;;;;;;8.13;5.75;;;11.30;83.90;;;;;;2372135;56;22053;-49
2022/12/29 02:33:23;;;;;;;8.57;4.80;;;11.30;83.90;;;;;;2369325;56;21467;-55
2022/12/29 02:35:57;;;;;;;6.05;4.72;;;11.30;84.00;;;;;;2373582;56;21114;-51
2022/12/29 02:38:38;;;;;;;5.60;4.55;;;11.20;84.20;;;;;;2372579;56;21582;-51
2022/12/29 02:41:11;;;;;;;5.43;4.47;;;11.30;84.40;;;;;;2373736;56;21341;-54
2022/12/29 02:43:44;;;;;;;5.37;4.45;;;11.20;84.30;;;;;;2374159;56;21059;-53
2022/12/29 02:46:18;;;;;;;5.97;4.37;;;11.20;84.30;;;;;;2373494;56;21113;-54
2022/12/29 02:48:51;;;;;;;4.97;4.30;;;11.30;84.50;;;;;;2372778;56;22186;-54
2022/12/29 02:51:23;;;;;;;4.55;4.05;;;11.20;84.30;;;;;;2373514;56;21051;-53
2022/12/29 02:56:37;;;;;;;5.12;4.40;;;11.30;84.20;;;;;;2626993;52;20979;-53
2022/12/29 02:59:05;;;;;;;3.85;3.45;;;11.30;84.30;;;;;;2374447;56;21026;-48
2022/12/29 03:02:16;;;;;;;4.60;3.97;;;11.30;84.50;;;;;;2374279;56;21027;-51
2022/12/29 03:04:55;;;;;;;4.15;3.75;;;11.30;84.40;;;;;;2372200;56;21031;-52
2022/12/29 03:07:30;;;;;;;5.03;3.95;;;11.30;84.20;;;;;;2371394;56;21050;-51
2022/12/29 03:10:08;;;;;;;4.00;3.60;;;11.30;84.20;;;;;;2372601;56;21448;-51
2022/12/29 03:18:30;;;;;;;5.32;3.70;;;11.30;84.20;;;;;;2371694;56;22290;-50
2022/12/29 03:21:04;;;;;;;3.87;3.28;;;11.30;84.90;;;;;;2372830;56;21542;-49
2022/12/29 03:23:33;;;;;;;4.53;3.28;;;11.30;84.40;;;;;;2372557;56;22143;-47
2022/12/29 03:26:06;;;;;;;5.50;3.40;;;11.30;84.30;;;;;;2373315;56;21034;-51
2022/12/29 03:28:38;;;;;;;5.18;3.83;;;11.30;84.30;;;;;;2372643;56;21105;-49
2022/12/29 03:31:09;;;;;;;3.58;3.17;;;11.30;84.50;;;;;;2372024;56;21059;-54
2022/12/29 03:33:38;;;;;;;6.20;4.15;;;11.30;84.40;;;;;;2373623;56;22187;-48
2022/12/29 03:36:10;;;;;;;4.35;3.15;;;11.30;84.20;;;;;;2372521;56;21117;-49
2022/12/29 03:38:43;;;;;;;4.65;3.58;;;11.40;84.20;;;;;;2372530;56;21031;-50
2022/12/29 03:41:15;;;;;;;5.03;3.80;;;11.30;84.20;;;;;;2372271;56;21114;-49
2022/12/29 03:43:43;;;;;;;3.95;3.25;;;11.40;84.30;;;;;;2374228;56;21170;-47
2022/12/29 03:46:10;;;;;;;5.50;3.30;;;11.40;84.20;;;;;;2374189;56;21508;-48
2022/12/29 03:48:37;;;;;;;5.72;3.25;;;11.40;84.30;;;;;;2373590;56;21027;-49
2022/12/29 03:51:04;;;;;;;4.68;3.70;;;11.30;84.30;;;;;;2374472;56;21027;-49
2022/12/29 03:53:32;;;;;;;3.30;3.00;;;11.30;84.40;;;;;;2372881;56;21531;-52
2022/12/29 03:55:59;;;;;;;3.53;3.00;;;11.40;84.60;;;;;;2372562;56;21042;-50
2022/12/29 03:58:26;;;;;;;5.43;3.92;;;11.40;84.40;;;;;;2369295;56;21715;-50
2022/12/29 04:00:53;;;;;;;3.33;3.03;;;11.40;84.30;;;;;;2371884;56;21066;-51
2022/12/29 04:03:20;;;;;;;5.90;2.92;;;11.40;84.40;;;;;;2372818;56;21110;-51
2022/12/29 04:05:47;;;;;;;4.22;3.12;;;11.40;84.10;;;;;;2372660;56;21118;-52
2022/12/29 04:08:14;;;;;;;5.00;3.10;;;11.40;83.50;;;;;;2372584;56;21060;-47
2022/12/29 04:10:41;;;;;;;4.07;3.17;;;11.40;83.90;;;;;;2372917;56;21063;-48
2022/12/29 04:13:09;;;;;;;3.40;2.70;;;11.50;83.80;;;;;;2372826;56;21526;-51
2022/12/29 04:15:36;;;;;;;3.53;2.50;;;11.50;84.20;;;;;;2353835;56;21045;-54
2022/12/29 04:18:03;;;;;;;3.78;2.65;;;11.50;83.90;;;;;;2351100;57;21615;-55
2022/12/29 04:23:16;;;;;;;3.28;2.80;;;11.50;83.80;;;;;;2352808;53;21060;-54
2022/12/29 04:25:46;;;;;;;4.68;2.95;;;11.50;83.70;;;;;;2374002;56;21030;-52
2022/12/29 04:28:13;;;;;;;4.25;2.80;;;11.50;83.40;;;;;;2376925;56;21660;-54
2022/12/29 04:30:40;;;;;;;3.33;3.03;;;11.40;83.40;;;;;;2377273;56;21062;-52
2022/12/29 04:35:44;;;;;;;3.60;2.60;;;11.40;83.70;;;;;;2330556;57;22563;-54
2022/12/29 04:38:12;;;;;;;3.65;2.72;;;11.40;83.90;;;;;;2345873;57;21717;-53
2022/12/29 04:40:40;;;;;;;3.92;2.40;;;11.40;83.90;;;;;;2347007;57;21197;-54
2022/12/29 04:43:07;;;;;;;3.12;2.83;;;11.40;83.90;;;;;;2346915;57;21589;-57
2022/12/29 04:45:34;;;;;;;2.30;1.90;;;11.40;83.70;;;;;;2346826;57;21045;-51
2022/12/29 04:48:02;;;;;;;3.53;2.12;;;11.40;83.70;;;;;;2344876;57;21061;-52
2022/12/29 04:50:29;;;;;;;4.18;2.35;;;11.40;83.70;;;;;;2344844;57;21026;-51
2022/12/29 04:52:56;;;;;;;3.35;2.05;;;11.40;83.70;;;;;;2347002;57;21096;-54
2022/12/29 04:55:23;;;;;;;2.62;2.10;;;11.40;84.20;;;;;;2346709;57;21030;-54
2022/12/29 04:57:50;;;;;;;3.08;2.35;;;11.40;83.90;;;;;;2347415;57;21093;-58
2022/12/29 05:00:18;;;;;;;3.45;2.00;;;11.40;83.90;;;;;;2346166;57;21561;-53
2022/12/29 05:02:45;;;;;;;2.53;1.80;;;11.40;84.00;;;;;;2346761;57;21514;-56
2022/12/29 05:05:12;;;;;;;2.30;2.10;;;11.50;84.10;;;;;;2346757;57;21054;-54
2022/12/29 05:07:40;;;;;;;2.42;1.83;;;11.40;84.00;;;;;;2390514;53;21021;-54
2022/12/29 05:10:09;;;;;;;2.12;1.90;;;11.50;83.70;;;;;;2346058;57;21684;-58
2022/12/29 05:12:37;;;;;;;2.08;1.80;;;11.50;83.90;;;;;;2346873;57;21053;-56
2022/12/29 05:15:08;;;;;;;2.60;2.08;;;11.50;84.00;;;;;;2371349;53;21030;-53
2022/12/29 05:17:35;;;;;;;2.97;1.87;;;11.50;84.20;;;;;;2346947;57;21116;-49
2022/12/29 05:20:02;;;;;;;1.87;1.67;;;11.50;84.20;;;;;;2346236;57;21063;-55
2022/12/29 05:22:29;;;;;;;2.50;1.83;;;11.50;84.10;;;;;;2347797;57;21025;-55
2022/12/29 05:24:56;;;;;;;3.85;2.50;;;11.60;84.10;;;;;;2347501;57;21017;-51
2022/12/29 05:27:24;;;;;;;2.80;2.08;;;11.60;84.20;;;;;;2348268;57;21033;-51
2022/12/29 05:29:51;;;;;;;2.15;1.95;;;11.60;84.30;;;;;;2347923;57;21026;-55
2022/12/29 05:32:18;;;;;;;3.05;1.80;;;11.60;84.40;;;;;;2346527;57;21026;-53
2022/12/29 05:34:45;;;;;;;2.08;1.80;;;11.60;84.50;;;;;;2346134;57;21621;-55
2022/12/29 05:37:12;;;;;;;2.40;2.20;;;11.60;84.60;;;;;;2346319;57;21105;-52
2022/12/29 05:39:39;;;;;;;2.42;1.70;;;11.60;84.60;;;;;;2345710;57;21042;-56
2022/12/29 05:42:06;;;;;;;2.40;2.05;;;11.60;84.70;;;;;;2346350;57;21046;-52
2022/12/29 05:44:33;;;;;;;3.50;2.20;;;11.70;84.60;;;;;;2346195;57;21045;-53
2022/12/29 05:47:01;;;;;;;3.22;2.10;;;11.70;84.40;;;;;;2346281;57;21113;-54
2022/12/29 05:49:28;;;;;;;2.55;2.35;;;11.70;84.70;;;;;;2345874;57;21121;-57
2022/12/29 05:51:55;;;;;;;2.50;1.90;;;11.70;85.00;;;;;;2346469;57;21045;-54
2022/12/29 05:54:22;;;;;;;2.35;1.87;;;11.60;85.00;;;;;;2346712;57;21045;-55
2022/12/29 05:56:49;;;;;;;2.90;2.25;;;11.70;85.10;;;;;;2345770;57;21054;-53
2022/12/29 05:59:16;;;;;;;3.75;2.03;;;11.70;85.10;;;;;;2344240;57;21066;-53
2022/12/29 06:01:43;;;;;;;2.20;2.00;;;11.70;85.20;;;;;;2344597;57;21301;-53
2022/12/29 06:04:11;;;;;;;2.00;1.80;;;11.70;85.10;;;;;;2345225;57;21069;-54
2022/12/29 06:06:39;;;;;;;2.67;2.37;;;11.60;85.30;;;;;;2345856;57;21057;-51
2022/12/29 06:09:06;;;;;;;2.78;2.33;;;11.60;85.40;;;;;;2345662;57;21113;-52
2022/12/29 06:11:33;;;;;;;2.87;2.05;;;11.60;85.40;;;;;;2345277;57;21038;-49
2022/12/29 06:14:00;;;;;;;3.03;2.12;;;11.70;85.40;;;;;;2345741;57;21610;-50
2022/12/29 06:16:28;;;;;;;4.32;2.17;;;11.60;85.20;;;;;;2345492;57;21121;-52
2022/12/29 06:18:55;;;;;;;2.55;2.15;;;11.70;85.00;;;;;;2345884;57;21534;-52
2022/12/29 06:21:22;;;;;;;2.30;2.10;;;11.60;84.80;;;;;;2346177;57;21050;-50
2022/12/29 06:23:49;;;;;;;2.42;2.00;;;11.70;84.90;;;;;;2346123;57;21046;-52
2022/12/29 06:26:16;;;;;;;4.60;2.33;;;11.70;85.10;;;;;;2345690;57;21109;-49
2022/12/29 06:28:44;;;;;;;4.47;2.30;;;11.70;85.10;;;;;;2593097;53;21043;-50
2022/12/29 06:31:11;;;;;;;2.87;1.80;;;11.70;85.10;;;;;;2346184;57;21022;-50
2022/12/29 06:33:39;;;;;;;3.30;2.15;;;11.70;85.10;;;;;;2345741;57;21042;-51
2022/12/29 06:36:07;;;;;;;2.55;2.10;;;11.80;85.00;;;;;;2345998;57;21042;-51
2022/12/29 06:38:35;;;;;;;3.58;2.10;;;11.80;84.90;;;;;;2346216;57;21121;-47
2022/12/29 06:41:02;;;;;;;2.55;2.28;;;11.80;85.00;;;;;;2346430;57;21057;-49
2022/12/29 06:43:30;;;;;;;2.28;1.95;;;11.80;85.00;;;;;;2346587;57;21117;-49
2022/12/29 06:45:57;;;;;;;3.05;2.28;;;11.80;84.80;;;;;;2345473;57;21133;-50
2022/12/29 06:48:25;;;;;;;1.98;1.75;;;11.80;84.70;;;;;;2344853;57;21529;-49
2022/12/29 06:50:52;;;;;;;1.90;1.73;;;11.80;84.60;;;;;;2344646;57;21125;-51
2022/12/29 06:53:19;;;;;;;2.47;1.70;;;11.80;84.50;;;;;;2345652;57;21038;-50
2022/12/29 06:55:46;;;;;;;1.87;1.70;;;11.80;84.20;;;;;;2345937;57;21046;-50
2022/12/29 06:58:13;;;;;;;3.35;1.80;;;11.80;84.30;;;;;;2345511;57;21537;-49
2022/12/29 07:00:40;;;;;;;2.12;1.80;;;11.80;84.60;;;;;;2345790;57;21057;-53
2022/12/29 07:03:08;;;;;;;3.08;1.67;;;11.80;84.60;;;;;;2345595;57;21120;-48
2022/12/29 07:05:35;;;;;;;2.90;1.70;;;11.80;84.30;;;;;;2345815;57;21050;-52
2022/12/29 07:08:02;;;;;;;1.62;1.52;;;11.80;85.00;;;;;;2345616;57;21046;-47
2022/12/29 07:10:29;;;;;;;4.03;1.80;;;11.80;84.40;;;;;;2345473;57;21208;-54
2022/12/29 07:12:56;;;;;;;3.30;2.12;;;11.80;84.40;;;;;;2346301;57;21050;-50
2022/12/29 07:15:24;;;;;;;2.70;1.60;;;11.80;84.20;;;;;;2345370;57;21037;-53
2022/12/29 07:17:51;;;;;;;2.20;2.00;;;11.80;84.20;;;;;;2346111;57;21553;-49
2022/12/29 07:20:19;;;;;;;5.10;1.90;;;11.80;84.10;;;;;;2346362;57;21130;-52
2022/12/29 07:22:47;;;;;;;2.72;1.73;;;11.80;83.90;;;;;;2346040;57;21510;-50
2022/12/29 07:25:14;;;;;;;1.60;1.50;;;11.80;83.90;;;;;;2345753;57;21510;-53
2022/12/29 07:27:41;;;;;;;2.85;1.65;;;11.80;83.90;;;;;;2472510;53;21049;-54
2022/12/29 07:30:11;;;;;;;2.03;1.67;;;11.80;84.20;;;;;;2346244;57;21045;-50
2022/12/29 07:32:38;;;;;;;1.70;1.60;;;11.80;84.30;;;;;;2346290;57;21113;-51
2022/12/29 07:35:07;;;;;;;2.22;1.60;;;11.80;84.40;;;;;;2346098;57;21113;-51
2022/12/29 07:37:35;;;;;;;2.28;1.60;;;11.80;84.50;;;;;;2346743;57;21114;-49
2022/12/29 07:40:03;;;;;;;1.90;1.70;;;11.80;84.50;;;;;;2346094;57;21042;-50
2022/12/29 07:42:30;;;;;;;2.60;1.92;;;11.80;84.40;;;;;;2345958;57;21101;-49
2022/12/29 07:44:57;;;;;;;1.70;1.60;;;11.80;84.40;;;;;;2345684;57;21050;-53
2022/12/29 07:47:24;;;;;;;2.28;1.77;;;11.90;84.40;;;;;;2345640;57;21049;-47
2022/12/29 07:49:51;;;;;;;4.35;1.83;;;11.90;84.20;;;;;;2346149;57;21102;-50
2022/12/29 07:52:19;;;;;;;3.00;1.70;;;11.90;84.20;;;;;;2345790;57;21105;-51
2022/12/29 07:54:46;;;;;;;4.00;2.08;;;11.90;84.20;;;;;;2345901;57;21510;-49
2022/12/29 07:57:13;;;;;;;1.83;1.73;;;11.90;84.80;;;;;;2344638;57;21066;-49
2022/12/29 07:59:40;;;;;;;3.45;2.10;;;11.90;84.30;;;;;;2345632;57;21149;-54
2022/12/29 08:02:11;;;;;;;2.40;2.10;;;11.90;84.30;;;;;;2344890;57;21113;-51
2022/12/29 08:04:38;;;;;;;2.03;1.92;;;11.90;84.40;;;;;;2346072;57;21619;-52
2022/12/29 08:07:05;;;;;;;3.08;2.00;;;11.90;84.40;;;;;;2345758;57;21041;-49
2022/12/29 08:09:32;;;;;;;3.53;2.12;;;11.90;84.30;;;;;;2345616;57;21576;-49
2022/12/29 08:12:00;;;;;;;2.75;1.92;;;11.90;84.40;;;;;;2345799;57;21137;-49
2022/12/29 08:14:27;;;;;;;5.15;2.30;;;11.90;84.40;;;;;;2345746;57;21038;-51
2022/12/29 08:16:54;;;;;;;2.60;1.70;;;11.90;84.40;;;;;;2345286;57;21596;-50
2022/12/29 08:19:21;;;;;;;2.45;1.60;;;11.80;84.50;;;;;;2346615;57;21109;-49
2022/12/29 08:21:48;;;;;;;2.65;1.70;;;11.90;84.20;;;;;;2346060;57;21054;-52
2022/12/29 08:24:15;;;;;;;2.03;1.80;;;11.90;84.40;;;;;;2345942;57;21046;-52
2022/12/29 08:26:42;;;;;;;2.30;1.65;;;11.90;83.60;;;;;;2345857;57;21062;-53
2022/12/29 08:29:09;;;;;;;3.53;1.70;;;11.90;83.50;;;;;;2345717;57;21591;-54
2022/12/29 08:31:37;;;;;;;3.08;1.45;;;11.90;83.30;;;;;;2345622;57;21102;-49
2022/12/29 08:34:05;;;;;;;1.60;1.50;;;11.90;83.30;;;;;;2345484;57;21125;-51
2022/12/29 08:36:32;;;;;;;3.58;1.50;;;11.90;83.30;;;;;;2345321;57;21062;-53
2022/12/29 08:38:59;;;;;;;1.98;1.50;;;11.80;83.20;;;;;;2346202;57;21054;-55
2022/12/29 08:41:27;;;;;;;1.87;1.55;;;11.80;83.30;;;;;;2345661;57;22056;-51
2022/12/29 08:43:54;;;;;;;4.50;1.58;;;11.80;83.60;;;;;;2345963;57;21038;-49
2022/12/29 08:46:21;;;;;;;2.83;1.58;;;11.80;83.80;;;;;;2345665;57;21530;-51
2022/12/29 08:51:24;;;;;;;2.03;1.83;;;11.80;84.00;;;;;;2355358;57;22376;-48
2022/12/29 08:53:52;;;;;;;2.10;1.70;;;11.80;84.00;;;;;;2349977;56;21068;-49
2022/12/29 08:56:19;;;;;;;2.05;1.60;;;11.80;83.90;;;;;;2374772;56;21594;-50
2022/12/29 08:58:46;;;;;;;1.45;1.35;;;11.80;83.70;;;;;;2374554;56;21039;-48
2022/12/29 09:01:14;;;;;;;2.50;1.27;;;11.80;83.80;;;;;;2374675;56;21107;-51
2022/12/29 09:03:41;;;;;;;2.78;1.55;;;11.90;83.80;;;;;;2373832;56;21058;-49
2022/12/29 09:06:08;;;;;;;3.87;1.58;;;11.80;84.00;;;;;;2374168;56;21096;-49
2022/12/29 09:08:35;;;;;;;2.55;1.70;;;11.90;83.90;;;;;;2374656;56;21107;-49
2022/12/29 09:11:10;;;;;;;2.10;1.60;;;11.80;83.90;;;;;;2375517;56;21083;-51
2022/12/29 09:13:38;;;;;;;5.90;1.80;;;11.80;84.10;;;;;;2374600;56;21047;-49
2022/12/29 09:16:06;;;;;;;3.85;1.55;;;11.80;83.90;;;;;;2374915;56;21050;-51
2022/12/29 09:18:33;;;;;;;2.30;1.50;;;11.90;83.80;;;;;;2628253;52;22072;-55
2022/12/29 09:21:01;;;;;;;5.05;2.03;;;11.90;83.50;;;;;;2374496;56;21186;-49
2022/12/29 09:23:28;;;;;;;2.28;1.20;;;11.90;83.80;;;;;;2373519;56;21035;-52
2022/12/29 09:25:56;;;;;;;2.90;1.30;;;11.90;83.50;;;;;;2374542;56;21572;-49
2022/12/29 09:28:23;;;;;;;2.17;1.40;;;12.00;83.30;;;;;;2374699;56;21034;-54
2022/12/29 09:30:51;;;;;;;2.42;1.20;;;12.00;83.20;;;;;;2375438;56;21519;-50
2022/12/29 09:33:18;;;;;;;5.28;1.70;;;12.00;83.30;;;;;;2372682;56;21539;-51
2022/12/29 09:35:51;;;;;;;3.25;1.25;;;12.00;83.20;;;;;;2374977;56;21098;-50
2022/12/29 09:38:20;;;;;;;3.60;1.50;;;12.00;83.00;;;;;;2375402;56;21019;-51
2022/12/29 09:40:51;;;;;;;6.28;1.50;;;12.10;82.50;;;;;;2374419;56;21582;-49
2022/12/29 09:43:32;;;;;;;2.50;1.50;;;12.00;82.30;;;;;;2374159;56;21066;-50
2022/12/29 09:46:09;;;;;;;2.65;1.30;;;12.10;82.30;;;;;;2373595;56;21027;-50
2022/12/29 09:48:40;;;;;;;4.37;1.80;;;12.10;82.20;;;;;;2373900;56;21743;-51
2022/12/29 09:51:13;;;;;;;3.17;1.52;;;12.10;81.50;;;;;;2373629;56;21660;-53
2022/12/29 09:53:44;;;;;;;3.15;1.50;;;12.20;81.70;;;;;;2374298;56;21027;-53
2022/12/29 09:56:16;;;;;;;2.58;1.05;;;12.20;81.30;;;;;;2372888;56;22179;-52
2022/12/29 09:58:50;;;;;;;6.53;2.22;;;12.10;80.90;;;;;;2369961;56;21547;-49
2022/12/29 10:01:28;;;;;;;4.75;1.55;;;12.10;80.80;;;;;;2371988;56;21515;-52
2022/12/29 10:03:57;;;;;;;4.85;1.60;;;12.10;80.60;;;;;;2372876;56;21043;-50
2022/12/29 10:06:31;;;;;;;4.12;1.23;;;12.20;80.50;;;;;;2373503;56;21054;-51
2022/12/29 10:09:08;;;;;;;2.87;1.42;;;12.10;80.10;;;;;;2371475;56;21138;-52
2022/12/29 10:11:55;;;;;;;2.78;1.20;;;12.20;80.20;;;;;;2371626;56;21515;-50
2022/12/29 10:14:33;;;;;;;2.40;1.15;;;12.20;80.20;;;;;;2404262;52;21137;-52
2022/12/29 10:17:05;;;;;;;9.75;1.50;;;12.20;79.90;;;;;;2535926;54;21534;-49
2022/12/29 10:19:53;;;;;;;5.40;1.67;;;12.30;79.80;;;;;;2299728;58;21090;-47
2022/12/29 10:22:33;;;;;;;5.68;2.22;;;12.30;79.50;;;;;;2298967;58;21606;-51
2022/12/29 10:25:04;;;;;;;7.07;1.60;;;12.30;79.00;;;;;;2299370;58;21074;-49
2022/12/29 10:30:13;;;;;;;2.70;1.25;;;12.30;78.00;;;;;;2325247;57;22086;-48
2022/12/29 10:32:47;;;;;;;3.33;1.60;;;12.30;78.10;;;;;;2318626;58;21006;-47
2022/12/29 10:35:18;;;;;;;1.98;1.20;;;12.30;77.60;;;;;;2332052;57;21090;-46
2022/12/29 10:37:52;;;;;;;5.68;1.60;;;12.30;77.40;;;;;;2344827;57;21489;-46
2022/12/29 10:40:25;;;;;;;4.55;1.45;;;12.30;76.90;;;;;;2345980;57;21656;-49
2022/12/29 10:42:54;;;;;;;;;;;12.30;76.80;;;;;;2349364;57;21682;-50
2022/12/29 10:45:24;;;;;;;6.95;1.30;;;12.30;77.00;;;;;;2343464;57;20082;-49
2022/12/29 10:48:00;;;;;;;6.25;1.60;;;12.30;76.40;;;;;;2341976;57;21500;-46
2022/12/29 10:50:29;;;;;;;3.65;1.50;;;12.20;76.50;;;;;;2345636;57;21096;-52
2022/12/29 10:55:35;;;;;;;5.45;1.45;;;12.10;76.50;;;;;;2305341;57;27853;-46
2022/12/29 10:58:06;;;;;;;7.22;1.52;;;12.00;76.80;;;;;;2346035;57;21081;-47
2022/12/29 11:00:34;;;;;;;2.42;1.08;;;12.10;76.40;;;;;;2346380;57;21038;-51
2022/12/29 11:03:24;;;;;;;4.07;1.45;;;12.20;75.70;;;;;;2344996;57;21058;-49
2022/12/29 11:05:56;;;;;;;5.97;2.05;;;12.20;75.70;;;;;;2346062;57;21569;-48
2022/12/29 11:08:26;;;;;;;7.05;1.98;;;12.20;75.60;;;;;;2345104;57;21718;-48
2022/12/29 11:11:01;;;;;;;6.40;1.65;;;12.20;75.70;;;;;;2590367;52;21517;-50
2022/12/29 11:13:30;;;;;;;4.65;1.42;;;12.10;75.40;;;;;;2345197;57;21585;-47
2022/12/29 11:15:57;;;;;;;7.80;2.00;;;12.10;75.50;;;;;;2342456;57;21731;-49
2022/12/29 11:18:26;;;;;;;7.90;1.50;;;12.10;75.40;;;;;;2344822;57;21049;-50
2022/12/29 11:20:55;;;;;;;7.87;1.58;;;12.10;75.20;;;;;;2347006;57;21644;-49
2022/12/29 11:23:27;;;;;;;6.22;1.77;;;12.10;75.40;;;;;;2347251;57;21026;-50
2022/12/29 11:28:48;;;;;;;11.77;2.05;;;12.10;75.50;;;;;;2354360;57;22089;-50
2022/12/29 11:31:22;;;;;;;6.65;1.50;;;12.10;75.00;;;;;;2345762;57;21104;-47
2022/12/29 11:33:49;;;;;;;8.80;1.52;;;12.10;74.90;;;;;;2345028;57;21151;-52
2022/12/29 11:36:21;;;;;;;5.22;1.60;;;12.10;75.30;;;;;;2370956;56;21600;-50
2022/12/29 11:38:50;;;;;;;5.90;1.80;;;12.10;75.50;;;;;;2373218;56;21118;-47
2022/12/29 11:41:23;;;;;;;4.50;1.20;;;12.10;75.60;;;;;;2372877;56;21573;-49
2022/12/29 11:46:31;;;;;;;5.47;1.77;;;12.20;75.40;;;;;;2351052;57;22041;-49
2022/12/29 11:49:00;;;;;;;7.15;1.23;;;12.20;75.00;;;;;;2345633;57;21113;-48
2022/12/29 11:51:30;;;;;;;4.68;1.58;;;12.20;75.00;;;;;;2346359;57;21014;-48
2022/12/29 11:54:02;;;;;;;3.60;1.23;;;12.20;74.80;;;;;;2346596;56;21046;-52
2022/12/29 11:56:36;;;;;;;7.70;2.17;;;12.30;74.10;;;;;;2372612;56;21043;-50
2022/12/29 11:59:34;;;;;;;5.37;1.52;;;12.30;74.00;;;;;;2372468;56;21066;-48
2022/12/29 12:02:11;;;;;;;5.12;1.30;;;12.30;73.70;;;;;;2372065;56;21185;-52
2022/12/29 12:04:39;;;;;;;6.18;1.48;;;12.30;73.20;;;;;;2370892;56;21058;-52
2022/12/29 12:09:54;;;;;;;8.57;1.45;;;12.30;73.30;;;;;;2351759;57;22125;-49
2022/12/29 12:12:29;;;;;;;2.83;1.30;;;12.30;73.10;;;;;;2347462;57;21045;-52
2022/12/29 12:14:59;;;;;;;4.40;1.10;;;12.40;73.20;;;;;;2358586;56;21015;-50
2022/12/29 12:17:37;;;;;;;4.82;0.80;;;12.40;73.20;;;;;;2374256;56;21598;-54
2022/12/29 12:20:17;;;;;;;2.05;1.08;;;12.40;73.00;;;;;;2372817;56;21182;-52
2022/12/29 12:22:49;;;;;;;5.00;1.08;;;12.40;73.00;;;;;;2372981;56;21051;-50
2022/12/29 12:25:21;;;;;;;2.28;1.00;;;12.40;72.70;;;;;;2373795;56;21125;-49
2022/12/29 12:27:51;;;;;;;4.28;0.98;;;12.40;72.70;;;;;;2372686;56;21038;-49
2022/12/29 12:30:21;;;;;;;6.50;1.40;;;12.40;72.90;;;;;;2373210;56;21102;-50
2022/12/29 12:32:55;;;;;;;5.37;1.10;;;12.40;72.80;;;;;;2371611;56;21019;-51
2022/12/29 12:35:32;;;;;;;4.60;1.10;;;12.40;72.70;;;;;;2372494;56;21097;-47
2022/12/29 12:38:23;;;;;;;4.97;1.10;;;12.40;72.70;;;;;;2373801;56;21034;-48
2022/12/29 12:41:11;;;;;;;5.35;1.52;;;12.40;72.80;;;;;;2372510;56;21531;-51
2022/12/29 12:43:46;;;;;;;4.07;1.45;;;12.40;72.90;;;;;;2373153;56;21050;-49
2022/12/29 12:46:30;;;;;;;6.95;1.73;;;12.50;73.00;;;;;;2372794;56;21150;-50
2022/12/29 12:49:34;;;;;;;8.55;1.80;;;12.40;72.80;;;;;;2371477;56;21618;-50
2022/12/29 12:52:09;;;;;;;8.90;1.50;;;12.40;73.00;;;;;;2341006;56;21110;-53
2022/12/29 12:57:21;;;;;;;4.55;1.48;;;12.40;73.00;;;;;;2325370;57;22587;-48
2022/12/29 12:59:57;;;;;;;5.85;1.65;;;12.40;73.20;;;;;;2347226;57;21724;-47
2022/12/29 13:02:40;;;;;;;5.75;1.30;;;12.40;73.20;;;;;;2347097;57;21038;-47
2022/12/29 13:05:23;;;;;;;5.47;1.73;;;12.40;73.40;;;;;;2346105;57;21033;-46
2022/12/29 13:07:53;;;;;;;;;;;12.40;73.50;;;;;;2348258;57;21362;-46
2022/12/29 13:10:29;;;;;;;3.90;1.23;;;12.50;73.90;;;;;;2345649;57;20345;-46
2022/12/29 13:13:23;;;;;;;5.60;1.95;;;12.50;73.00;;;;;;2344764;57;21497;-49
2022/12/29 13:16:00;;;;;;;3.40;1.48;;;12.40;73.20;;;;;;2341818;57;21049;-50
2022/12/29 13:18:36;;;;;;;4.55;1.40;;;12.40;73.40;;;;;;2343549;57;22083;-48
2022/12/29 13:21:11;;;;;;;8.45;2.10;;;12.40;73.60;;;;;;2342388;57;22159;-52
2022/12/29 13:23:44;;;;;;;10.20;1.65;;;12.40;73.40;;;;;;2344891;57;21069;-48
2022/12/29 13:26:19;;;;;;;5.25;1.58;;;12.40;73.40;;;;;;2342979;57;21608;-51
2022/12/29 13:28:55;;;;;;;6.93;2.10;;;12.40;73.00;;;;;;2343962;57;21049;-47
2022/12/29 13:31:33;;;;;;;8.20;2.20;;;12.40;73.20;;;;;;2344818;57;21045;-46
2022/12/29 13:36:44;;;;;;;9.13;1.45;;;12.50;73.20;;;;;;2352759;57;22081;-46
2022/12/29 13:39:16;;;;;;;6.43;1.58;;;12.40;73.20;;;;;;2343978;57;21081;-48
2022/12/29 13:41:48;;;;;;;4.70;1.42;;;12.40;74.10;;;;;;2343303;57;21152;-48
2022/12/29 13:44:22;;;;;;;7.30;2.12;;;12.40;73.50;;;;;;2349540;56;21865;-48
2022/12/29 13:46:50;;;;;;;8.35;1.77;;;12.40;74.20;;;;;;2373571;56;21039;-48
2022/12/29 13:49:20;;;;;;;6.05;1.65;;;12.30;74.90;;;;;;2372035;56;22179;-46
2022/12/29 13:51:50;;;;;;;6.60;1.60;;;12.30;75.30;;;;;;2372770;56;21583;-49
2022/12/29 13:54:29;;;;;;;4.75;1.50;;;12.20;75.80;;;;;;2374512;56;21101;-48
2022/12/29 13:57:06;;;;;;;4.85;1.67;;;12.20;76.20;;;;;;2374760;56;21595;-48
2022/12/29 13:59:42;;;;;;;10.35;2.12;;;12.20;77.30;;;;;;2374584;56;21011;-48
2022/12/29 14:02:21;;;;;;;5.78;1.90;;;12.20;76.70;;;;;;2374864;56;21034;-53
2022/12/29 14:05:00;;;;;;;6.47;1.60;;;12.20;76.80;;;;;;2373907;56;21388;-50
2022/12/29 14:07:29;;;;;;;8.70;1.95;;;12.20;76.90;;;;;;2373299;56;21043;-51
2022/12/29 14:09:57;;;;;;;7.87;2.00;;;12.10;76.90;;;;;;2371198;56;21712;-54
2022/12/29 14:12:36;;;;;;;7.15;1.75;;;12.20;77.20;;;;;;2373324;56;21617;-52